Архив погоды в Одесском

Метеограмма Одесское
Пятница, 27 Апреля
Время местн. Темп Ветер Видим Явления Облачность нижн/средн/верх Атм. давл. Влжн Точка росы ВНГО R Сост. почвы Tg s
Напр Скр Прв ур.ст ур.м изм
09:00 +7.2° Ю,Ю-З 3 - 10 км - ясно 756 768 +0.2 52% -1.9° более 2.5 км 0 Влажная (без луж) -2° -
06:00 -0.7° Ю,Ю-З 2 - 10 км - облачно с прояснениями 756 768 0 81% -3.6° более 2.5 км - - - -
03:00 +1° Ю-З 4 - 10 км - облачно с прояснениями 756 768 +0.3 75% -3° более 2.5 км - - - -
00:00 +2.1° Ю 3 - 10 км - переменная облачность 756 767 +0.5 70% -2.7° 1 км - - - -
Четверг, 26 Апреля
Время местн. Темп Ветер Видим Явления Облачность нижн/средн/верх Атм. давл. Влжн Точка росы ВНГО R Сост. почвы Tg s
Напр Скр Прв ур.ст ур.м изм
21:00 +4° Ю-З 2 - 10 км - переменная облачность 755 767 +0.8 64% -2.2° 1 км 0 - - -
18:00 +6.4° З 5 - 10 км - облачно 754 766 +0.8 57% -1.5° 1 км - - - -
15:00 +6.6° З 6 11 10 км - облачно с прояснениями 754 765 +0.6 56% -1.5° 600 м - - - -
12:00 +6.4° З 6 10 10 км - облачно 753 765 +0.8 57% -1.5° 1 км - - - -
09:00 +3.6° З 6 - 10 км - облачно 752 764 +1.1 73% -0.7° - 0 Влажная (без луж) - -
06:00 +0.6° Ю-З 4 - 10 км - облачно 751 763 +0.6 87% -1.3° 1 км - - - -
03:00 +0.7° Ю-З 4 - 10 км - облачно 750 762 +0.5 88% -1° 1 км - - - -
00:00 +1.1° Ю-З 4 - 10 км - переменная облачность 750 762 +0.5 74% -3° 1 км - - - -
Среда, 25 Апреля
Время местн. Темп Ветер Видим Явления Облачность нижн/средн/верх Атм. давл. Влжн Точка росы ВНГО R Сост. почвы Tg s
Напр Скр Прв ур.ст ур.м изм
21:00 +4.7° З 5 14 10 км - облачно 749 761 +1 63% -1.8° 1 км 0 - - -
18:00 +6.9° З,Ю-З 5 15 10 км ливневый дождь облачно 748 760 +1.2 61% 1 км - - - -
15:00 +5.3° З 9 15 10 км - облачно 747 759 +2.6 73% +0.9° 1 км - - - -
12:00 +7.4° Ю-З 7 15 10 км - облачно 745 756 +0.5 67% +1.7° 1 км - - - -
09:00 +8.5° Ю 5 - 10 км - облачно 744 755 +0.2 74% +4.2° 1 км 2 Влажная (без луж) - -
06:00 +0.8° Ю,Ю-З 1 - 10 км слабый ливневый дождь ясно 744 756 +1.5 99% +0.7° более 2.5 км - - - -
03:00 +5.4° З 2 - 10 км небо без изменений {ливневые осадки} ясно 743 754 +0.8 83% +2.7° более 2.5 км - - - -
00:00 +8.3° Ю-З 1 - 4 км слабый ливневый дождь облачно 742 753 0 97% +7.9° 1 км - - - -
Вторник, 24 Апреля
Время местн. Темп Ветер Видим Явления Облачность нижн/средн/верх Атм. давл. Влжн Точка росы ВНГО R Сост. почвы Tg s
Напр Скр Прв ур.ст ур.м изм
21:00 +10.6° З 2 - 4 км слабый ливневый дождь облачно 742 753 -0.5 87% +8.5° 1 км 0.6 - - -
18:00 +15.9° З,Ю-З 5 10 10 км небо без изменений {ливневые осадки} облачно 742 753 -0.6 50% +5.6° 1 км - - - -
15:00 +18.5° Ю 6 10 10 км - облачно 743 754 -1.6 45% +6.3° 1 км - - - -
12:00 +16.1° Ю 5 - 10 км - облачно 744 755 -1.2 56% +7.2° 1 км - - - -
09:00 +9.5° Ю,Ю-В 4 - 10 км - облачно 746 757 -0.8 76% +5.4° 1 км 0 Влажная (без луж) - -
06:00 +5.6° Ю 3 - 10 км - облачно 746 758 -0.4 86% +3.4° более 2.5 км - - - -